EGTE/EXT METAR and TAF weather

Enter ICAO airport designator
Station Type Date Time Source
EGTE METAR 2021/05/14 21:50 UTC NOAA

EGTE 142150Z 16005KT 9999 FEW012 SCT030 10/09 Q1006


Station Type Date Time Source
EGTE Decoded METAR 2021/05/14 21:50 UTC NOAA

Exeter Airport, United Kingdom (EGTE) 50-44N 003-25W
May 14, 2021 - 05:50 PM EDT / 2021.05.14 2150 UTC
Wind: from the SSE (160 degrees) at 6 MPH (5 KT):0
Visibility: greater than 7 mile(s):0
Sky conditions: partly cloudy
Temperature: 50 F (10 C)
Dew Point: 48 F (9 C)
Relative Humidity: 93%
Pressure (altimeter): 29.71 in. Hg (1006 hPa)
ob: EGTE 142150Z 16005KT 9999 FEW012 SCT030 10/09 Q1006
cycle: 22

Station Type Date Time Source
EGTE TAF 2012/04/19 12:15 UTC NOAA

TAF TAF EGTE 191401Z 1912/1924 31016KT 9999 SCT030 SCT035 PROB40
TEMPO 1915/1918 7000 SHRA BKN014

Example: see airport list